sensor_id;sensor_type;location;lat;lon;timestamp;P1;durP1;ratioP1;P2;durP2;ratioP2
76210;SDS011;65003;49.518;11.280;2023-02-28T00:00:06;4.00;;;2.47;;
76210;SDS011;65003;49.518;11.280;2023-02-28T00:02:37;4.50;;;2.77;;
76210;SDS011;65003;49.518;11.280;2023-02-28T00:05:03;4.03;;;2.73;;
76210;SDS011;65003;49.518;11.280;2023-02-28T00:07:31;4.73;;;2.57;;
76210;SDS011;65003;49.518;11.280;2023-02-28T00:09:57;3.80;;;2.23;;
76210;SDS011;65003;49.518;11.280;2023-02-28T00:12:24;3.30;;;2.23;;
76210;SDS011;65003;49.518;11.280;2023-02-28T00:14:50;4.57;;;2.80;;
76210;SDS011;65003;49.518;11.280;2023-02-28T00:17:17;3.60;;;2.27;;
76210;SDS011;65003;49.518;11.280;2023-02-28T00:19:44;3.47;;;2.20;;
76210;SDS011;65003;49.518;11.280;2023-02-28T00:22:10;4.77;;;2.40;;
76210;SDS011;65003;49.518;11.280;2023-02-28T00:24:37;4.90;;;2.70;;
76210;SDS011;65003;49.518;11.280;2023-02-28T00:27:03;4.33;;;3.07;;
76210;SDS011;65003;49.518;11.280;2023-02-28T00:29:30;4.13;;;3.00;;
76210;SDS011;65003;49.518;11.280;2023-02-28T00:31:57;3.00;;;2.47;;
76210;SDS011;65003;49.518;11.280;2023-02-28T00:34:23;5.27;;;3.20;;
76210;SDS011;65003;49.518;11.280;2023-02-28T00:36:50;3.43;;;2.47;;
76210;SDS011;65003;49.518;11.280;2023-02-28T00:39:17;3.20;;;2.73;;
76210;SDS011;65003;49.518;11.280;2023-02-28T00:41:45;4.83;;;3.07;;
76210;SDS011;65003;49.518;11.280;2023-02-28T00:44:11;6.23;;;3.00;;
76210;SDS011;65003;49.518;11.280;2023-02-28T00:46:38;7.60;;;3.13;;
76210;SDS011;65003;49.518;11.280;2023-02-28T00:49:04;4.80;;;2.50;;
76210;SDS011;65003;49.518;11.280;2023-02-28T00:51:31;3.87;;;2.90;;
76210;SDS011;65003;49.518;11.280;2023-02-28T00:53:58;4.97;;;3.10;;
76210;SDS011;65003;49.518;11.280;2023-02-28T00:56:24;3.90;;;2.47;;
76210;SDS011;65003;49.518;11.280;2023-02-28T00:58:51;4.20;;;2.63;;
76210;SDS011;65003;49.518;11.280;2023-02-28T01:01:17;3.93;;;2.67;;
76210;SDS011;65003;49.518;11.280;2023-02-28T01:03:45;3.53;;;2.30;;
76210;SDS011;65003;49.518;11.280;2023-02-28T01:06:12;6.67;;;3.03;;
76210;SDS011;65003;49.518;11.280;2023-02-28T01:08:39;3.77;;;2.73;;
76210;SDS011;65003;49.518;11.280;2023-02-28T01:11:07;4.37;;;3.00;;
76210;SDS011;65003;49.518;11.280;2023-02-28T01:13:33;5.70;;;2.70;;
76210;SDS011;65003;49.518;11.280;2023-02-28T01:15:59;5.27;;;2.67;;
76210;SDS011;65003;49.518;11.280;2023-02-28T01:18:26;5.07;;;2.73;;
76210;SDS011;65003;49.518;11.280;2023-02-28T01:20:53;3.40;;;2.77;;
76210;SDS011;65003;49.518;11.280;2023-02-28T01:23:20;6.97;;;2.57;;
76210;SDS011;65003;49.518;11.280;2023-02-28T01:25:47;7.33;;;3.10;;
76210;SDS011;65003;49.518;11.280;2023-02-28T01:28:13;4.17;;;2.97;;
76210;SDS011;65003;49.518;11.280;2023-02-28T01:30:40;6.83;;;3.20;;
76210;SDS011;65003;49.518;11.280;2023-02-28T01:33:06;3.70;;;2.80;;
76210;SDS011;65003;49.518;11.280;2023-02-28T01:35:34;5.00;;;2.80;;
76210;SDS011;65003;49.518;11.280;2023-02-28T01:38:00;5.53;;;3.00;;
76210;SDS011;65003;49.518;11.280;2023-02-28T01:40:26;4.77;;;3.03;;
76210;SDS011;65003;49.518;11.280;2023-02-28T01:42:53;3.90;;;3.07;;
76210;SDS011;65003;49.518;11.280;2023-02-28T01:45:24;4.77;;;2.87;;
76210;SDS011;65003;49.518;11.280;2023-02-28T01:47:52;6.27;;;3.03;;
76210;SDS011;65003;49.518;11.280;2023-02-28T01:50:19;4.73;;;3.10;;
76210;SDS011;65003;49.518;11.280;2023-02-28T01:52:45;3.87;;;3.10;;
76210;SDS011;65003;49.518;11.280;2023-02-28T01:55:12;5.83;;;3.07;;
76210;SDS011;65003;49.518;11.280;2023-02-28T01:57:39;5.27;;;3.33;;
76210;SDS011;65003;49.518;11.280;2023-02-28T02:00:06;6.27;;;2.90;;
76210;SDS011;65003;49.518;11.280;2023-02-28T02:02:34;6.27;;;3.37;;
76210;SDS011;65003;49.518;11.280;2023-02-28T02:05:03;3.77;;;3.37;;
76210;SDS011;65003;49.518;11.280;2023-02-28T02:07:29;6.57;;;3.20;;
76210;SDS011;65003;49.518;11.280;2023-02-28T02:10:00;7.47;;;3.80;;
76210;SDS011;65003;49.518;11.280;2023-02-28T02:12:32;5.60;;;3.73;;
76210;SDS011;65003;49.518;11.280;2023-02-28T02:15:11;4.60;;;3.20;;
76210;SDS011;65003;49.518;11.280;2023-02-28T02:17:48;5.47;;;3.03;;
76210;SDS011;65003;49.518;11.280;2023-02-28T02:20:25;4.07;;;3.47;;
76210;SDS011;65003;49.518;11.280;2023-02-28T02:24:14;4.20;;;3.23;;
76210;SDS011;65003;49.518;11.280;2023-02-28T02:26:10;3.97;;;2.87;;
76210;SDS011;65003;49.518;11.280;2023-02-28T02:28:41;4.67;;;3.07;;
76210;SDS011;65003;49.518;11.280;2023-02-28T02:31:20;5.37;;;3.53;;
76210;SDS011;65003;49.518;11.280;2023-02-28T02:36:42;4.93;;;2.87;;
76210;SDS011;65003;49.518;11.280;2023-02-28T02:39:12;4.77;;;3.30;;
76210;SDS011;65003;49.518;11.280;2023-02-28T02:41:38;6.73;;;3.83;;
76210;SDS011;65003;49.518;11.280;2023-02-28T02:44:06;6.27;;;3.37;;
76210;SDS011;65003;49.518;11.280;2023-02-28T02:46:43;4.47;;;3.03;;
76210;SDS011;65003;49.518;11.280;2023-02-28T02:49:13;4.53;;;2.80;;
76210;SDS011;65003;49.518;11.280;2023-02-28T02:51:36;5.37;;;3.33;;
76210;SDS011;65003;49.518;11.280;2023-02-28T02:54:05;4.90;;;3.67;;
76210;SDS011;65003;49.518;11.280;2023-02-28T02:56:31;6.73;;;3.93;;
76210;SDS011;65003;49.518;11.280;2023-02-28T02:58:59;7.73;;;3.60;;
76210;SDS011;65003;49.518;11.280;2023-02-28T03:01:24;6.47;;;4.13;;
76210;SDS011;65003;49.518;11.280;2023-02-28T03:03:58;5.63;;;4.00;;
76210;SDS011;65003;49.518;11.280;2023-02-28T03:06:24;6.70;;;4.10;;
76210;SDS011;65003;49.518;11.280;2023-02-28T03:08:50;6.73;;;4.27;;
76210;SDS011;65003;49.518;11.280;2023-02-28T03:11:17;5.93;;;3.67;;
76210;SDS011;65003;49.518;11.280;2023-02-28T03:13:48;5.37;;;3.30;;
76210;SDS011;65003;49.518;11.280;2023-02-28T03:16:35;5.97;;;3.77;;
76210;SDS011;65003;49.518;11.280;2023-02-28T03:21:43;5.07;;;3.90;;
76210;SDS011;65003;49.518;11.280;2023-02-28T03:24:12;6.40;;;4.33;;
76210;SDS011;65003;49.518;11.280;2023-02-28T03:26:41;6.47;;;4.03;;
76210;SDS011;65003;49.518;11.280;2023-02-28T03:29:08;4.90;;;3.50;;
76210;SDS011;65003;49.518;11.280;2023-02-28T03:31:48;7.87;;;4.43;;
76210;SDS011;65003;49.518;11.280;2023-02-28T03:34:24;4.80;;;3.90;;
76210;SDS011;65003;49.518;11.280;2023-02-28T03:36:53;8.60;;;4.30;;
76210;SDS011;65003;49.518;11.280;2023-02-28T03:39:21;5.73;;;4.27;;
76210;SDS011;65003;49.518;11.280;2023-02-28T03:41:52;6.37;;;4.67;;
76210;SDS011;65003;49.518;11.280;2023-02-28T03:44:18;5.80;;;5.03;;
76210;SDS011;65003;49.518;11.280;2023-02-28T03:46:47;8.03;;;4.10;;
76210;SDS011;65003;49.518;11.280;2023-02-28T03:49:13;6.83;;;4.00;;
76210;SDS011;65003;49.518;11.280;2023-02-28T03:51:38;5.10;;;4.47;;
76210;SDS011;65003;49.518;11.280;2023-02-28T03:54:05;6.23;;;4.20;;
76210;SDS011;65003;49.518;11.280;2023-02-28T03:56:34;8.07;;;4.70;;
76210;SDS011;65003;49.518;11.280;2023-02-28T03:59:09;7.10;;;4.37;;
76210;SDS011;65003;49.518;11.280;2023-02-28T04:01:39;6.83;;;4.77;;
76210;SDS011;65003;49.518;11.280;2023-02-28T04:04:05;5.83;;;4.30;;
76210;SDS011;65003;49.518;11.280;2023-02-28T04:06:32;7.03;;;4.10;;
76210;SDS011;65003;49.518;11.280;2023-02-28T04:08:58;5.73;;;4.10;;
76210;SDS011;65003;49.518;11.280;2023-02-28T04:13:59;9.60;;;4.77;;
76210;SDS011;65003;49.518;11.280;2023-02-28T04:16:26;6.90;;;4.07;;
76210;SDS011;65003;49.518;11.280;2023-02-28T04:18:53;8.10;;;4.27;;
76210;SDS011;65003;49.518;11.280;2023-02-28T04:21:19;5.20;;;4.20;;
76210;SDS011;65003;49.518;11.280;2023-02-28T04:23:46;6.90;;;4.60;;
76210;SDS011;65003;49.518;11.280;2023-02-28T04:26:12;7.30;;;4.60;;
76210;SDS011;65003;49.518;11.280;2023-02-28T04:28:39;5.27;;;4.13;;
76210;SDS011;65003;49.518;11.280;2023-02-28T04:31:05;7.53;;;5.17;;
76210;SDS011;65003;49.518;11.280;2023-02-28T04:33:32;8.40;;;4.30;;
76210;SDS011;65003;49.518;11.280;2023-02-28T04:36:01;7.73;;;4.70;;
76210;SDS011;65003;49.518;11.280;2023-02-28T04:38:29;8.67;;;5.43;;
76210;SDS011;65003;49.518;11.280;2023-02-28T04:40:57;8.83;;;4.60;;
76210;SDS011;65003;49.518;11.280;2023-02-28T04:43:23;8.37;;;4.53;;
76210;SDS011;65003;49.518;11.280;2023-02-28T04:45:49;5.50;;;4.10;;
76210;SDS011;65003;49.518;11.280;2023-02-28T04:48:16;7.83;;;4.53;;
76210;SDS011;65003;49.518;11.280;2023-02-28T04:50:42;7.17;;;4.80;;
76210;SDS011;65003;49.518;11.280;2023-02-28T04:53:09;9.20;;;5.23;;
76210;SDS011;65003;49.518;11.280;2023-02-28T04:55:36;6.37;;;4.10;;
76210;SDS011;65003;49.518;11.280;2023-02-28T04:58:04;6.87;;;4.43;;
76210;SDS011;65003;49.518;11.280;2023-02-28T05:00:31;7.30;;;4.60;;
76210;SDS011;65003;49.518;11.280;2023-02-28T05:02:58;6.50;;;4.37;;
76210;SDS011;65003;49.518;11.280;2023-02-28T05:05:25;6.13;;;4.23;;
76210;SDS011;65003;49.518;11.280;2023-02-28T05:07:51;7.50;;;4.33;;
76210;SDS011;65003;49.518;11.280;2023-02-28T05:10:18;5.83;;;4.60;;
76210;SDS011;65003;49.518;11.280;2023-02-28T05:12:44;6.37;;;4.77;;
76210;SDS011;65003;49.518;11.280;2023-02-28T05:15:12;5.07;;;4.43;;
76210;SDS011;65003;49.518;11.280;2023-02-28T05:17:38;8.93;;;4.83;;
76210;SDS011;65003;49.518;11.280;2023-02-28T05:20:06;8.43;;;4.90;;
76210;SDS011;65003;49.518;11.280;2023-02-28T05:22:33;5.33;;;4.50;;
76210;SDS011;65003;49.518;11.280;2023-02-28T05:25:00;6.40;;;4.73;;
76210;SDS011;65003;49.518;11.280;2023-02-28T05:27:27;8.10;;;4.60;;
76210;SDS011;65003;49.518;11.280;2023-02-28T05:29:53;7.87;;;5.43;;
76210;SDS011;65003;49.518;11.280;2023-02-28T05:32:20;9.97;;;5.70;;
76210;SDS011;65003;49.518;11.280;2023-02-28T05:34:46;7.33;;;4.53;;
76210;SDS011;65003;49.518;11.280;2023-02-28T05:37:13;7.67;;;4.80;;
76210;SDS011;65003;49.518;11.280;2023-02-28T05:39:40;6.37;;;4.67;;
76210;SDS011;65003;49.518;11.280;2023-02-28T05:42:06;7.17;;;5.27;;
76210;SDS011;65003;49.518;11.280;2023-02-28T05:44:33;6.77;;;4.67;;
76210;SDS011;65003;49.518;11.280;2023-02-28T05:47:01;11.13;;;6.40;;
76210;SDS011;65003;49.518;11.280;2023-02-28T05:49:29;6.57;;;4.50;;
76210;SDS011;65003;49.518;11.280;2023-02-28T05:51:55;8.68;;;6.40;;
76210;SDS011;65003;49.518;11.280;2023-02-28T05:54:22;7.13;;;5.40;;
76210;SDS011;65003;49.518;11.280;2023-02-28T05:56:48;7.20;;;4.93;;
76210;SDS011;65003;49.518;11.280;2023-02-28T05:59:15;8.07;;;5.37;;
76210;SDS011;65003;49.518;11.280;2023-02-28T06:01:42;14.33;;;7.87;;
76210;SDS011;65003;49.518;11.280;2023-02-28T06:04:09;20.60;;;11.47;;
76210;SDS011;65003;49.518;11.280;2023-02-28T06:06:35;9.70;;;7.70;;
76210;SDS011;65003;49.518;11.280;2023-02-28T06:09:03;11.70;;;5.73;;
76210;SDS011;65003;49.518;11.280;2023-02-28T06:11:29;8.90;;;7.13;;
76210;SDS011;65003;49.518;11.280;2023-02-28T06:13:57;7.93;;;5.40;;
76210;SDS011;65003;49.518;11.280;2023-02-28T06:16:23;8.70;;;6.50;;
76210;SDS011;65003;49.518;11.280;2023-02-28T06:18:50;9.30;;;5.80;;
76210;SDS011;65003;49.518;11.280;2023-02-28T06:21:16;9.17;;;5.43;;
76210;SDS011;65003;49.518;11.280;2023-02-28T06:23:44;8.30;;;5.50;;
76210;SDS011;65003;49.518;11.280;2023-02-28T06:26:10;7.70;;;5.13;;
76210;SDS011;65003;49.518;11.280;2023-02-28T06:28:37;11.07;;;5.80;;
76210;SDS011;65003;49.518;11.280;2023-02-28T06:31:09;7.47;;;5.07;;
76210;SDS011;65003;49.518;11.280;2023-02-28T06:33:35;12.40;;;6.50;;
76210;SDS011;65003;49.518;11.280;2023-02-28T06:36:02;9.83;;;5.13;;
76210;SDS011;65003;49.518;11.280;2023-02-28T06:38:28;9.97;;;5.80;;
76210;SDS011;65003;49.518;11.280;2023-02-28T06:40:56;9.23;;;6.10;;
76210;SDS011;65003;49.518;11.280;2023-02-28T06:43:22;7.83;;;5.53;;
76210;SDS011;65003;49.518;11.280;2023-02-28T06:45:49;8.33;;;5.40;;
76210;SDS011;65003;49.518;11.280;2023-02-28T06:48:16;10.23;;;5.00;;
76210;SDS011;65003;49.518;11.280;2023-02-28T06:50:42;9.13;;;5.67;;
76210;SDS011;65003;49.518;11.280;2023-02-28T06:53:09;8.13;;;5.07;;
76210;SDS011;65003;49.518;11.280;2023-02-28T06:55:37;7.33;;;5.17;;
76210;SDS011;65003;49.518;11.280;2023-02-28T06:58:02;10.13;;;6.10;;
76210;SDS011;65003;49.518;11.280;2023-02-28T07:00:28;10.20;;;5.97;;
76210;SDS011;65003;49.518;11.280;2023-02-28T07:02:55;8.70;;;5.67;;
76210;SDS011;65003;49.518;11.280;2023-02-28T07:05:22;8.30;;;6.03;;
76210;SDS011;65003;49.518;11.280;2023-02-28T07:07:48;10.73;;;5.43;;
76210;SDS011;65003;49.518;11.280;2023-02-28T07:10:16;6.50;;;4.80;;
76210;SDS011;65003;49.518;11.280;2023-02-28T07:12:42;10.27;;;5.83;;
76210;SDS011;65003;49.518;11.280;2023-02-28T07:15:09;6.43;;;5.10;;
76210;SDS011;65003;49.518;11.280;2023-02-28T07:17:36;8.20;;;6.00;;
76210;SDS011;65003;49.518;11.280;2023-02-28T07:20:03;11.80;;;5.90;;
76210;SDS011;65003;49.518;11.280;2023-02-28T07:22:30;6.93;;;5.03;;
76210;SDS011;65003;49.518;11.280;2023-02-28T07:24:57;6.97;;;5.93;;
76210;SDS011;65003;49.518;11.280;2023-02-28T07:27:23;10.10;;;5.97;;
76210;SDS011;65003;49.518;11.280;2023-02-28T07:29:50;8.93;;;5.47;;
76210;SDS011;65003;49.518;11.280;2023-02-28T07:32:16;10.37;;;6.93;;
76210;SDS011;65003;49.518;11.280;2023-02-28T07:34:43;12.57;;;6.53;;
76210;SDS011;65003;49.518;11.280;2023-02-28T07:37:09;8.90;;;6.43;;
76210;SDS011;65003;49.518;11.280;2023-02-28T07:39:36;12.77;;;6.37;;
76210;SDS011;65003;49.518;11.280;2023-02-28T07:42:04;8.70;;;6.27;;
76210;SDS011;65003;49.518;11.280;2023-02-28T07:44:30;8.70;;;5.90;;
76210;SDS011;65003;49.518;11.280;2023-02-28T07:46:57;8.20;;;5.67;;
76210;SDS011;65003;49.518;11.280;2023-02-28T07:49:24;8.07;;;5.97;;
76210;SDS011;65003;49.518;11.280;2023-02-28T07:51:50;10.17;;;6.37;;
76210;SDS011;65003;49.518;11.280;2023-02-28T07:54:17;9.37;;;5.90;;
76210;SDS011;65003;49.518;11.280;2023-02-28T07:56:43;11.50;;;6.30;;
76210;SDS011;65003;49.518;11.280;2023-02-28T07:59:10;9.30;;;5.50;;
76210;SDS011;65003;49.518;11.280;2023-02-28T08:01:37;7.33;;;5.67;;
76210;SDS011;65003;49.518;11.280;2023-02-28T08:04:04;9.43;;;5.70;;
76210;SDS011;65003;49.518;11.280;2023-02-28T08:06:30;9.33;;;5.63;;
76210;SDS011;65003;49.518;11.280;2023-02-28T08:08:57;7.67;;;5.80;;
76210;SDS011;65003;49.518;11.280;2023-02-28T08:11:24;8.10;;;5.13;;
76210;SDS011;65003;49.518;11.280;2023-02-28T08:13:50;7.43;;;5.13;;
76210;SDS011;65003;49.518;11.280;2023-02-28T08:16:17;8.00;;;5.33;;
76210;SDS011;65003;49.518;11.280;2023-02-28T08:18:44;7.63;;;6.33;;
76210;SDS011;65003;49.518;11.280;2023-02-28T08:21:11;7.50;;;5.30;;
76210;SDS011;65003;49.518;11.280;2023-02-28T08:23:37;7.57;;;5.33;;
76210;SDS011;65003;49.518;11.280;2023-02-28T08:26:04;9.30;;;6.40;;
76210;SDS011;65003;49.518;11.280;2023-02-28T08:28:31;8.83;;;6.27;;
76210;SDS011;65003;49.518;11.280;2023-02-28T08:30:57;8.50;;;5.90;;
76210;SDS011;65003;49.518;11.280;2023-02-28T08:33:24;7.40;;;5.80;;
76210;SDS011;65003;49.518;11.280;2023-02-28T08:35:52;8.03;;;6.23;;
76210;SDS011;65003;49.518;11.280;2023-02-28T08:38:20;9.70;;;6.40;;
76210;SDS011;65003;49.518;11.280;2023-02-28T08:40:46;7.33;;;6.03;;
76210;SDS011;65003;49.518;11.280;2023-02-28T08:43:13;7.70;;;5.53;;
76210;SDS011;65003;49.518;11.280;2023-02-28T08:45:39;7.00;;;5.60;;
76210;SDS011;65003;49.518;11.280;2023-02-28T08:48:07;10.87;;;6.67;;
76210;SDS011;65003;49.518;11.280;2023-02-28T08:50:33;9.65;;;6.12;;
76210;SDS011;65003;49.518;11.280;2023-02-28T08:53:00;8.93;;;7.03;;
76210;SDS011;65003;49.518;11.280;2023-02-28T08:55:27;7.47;;;5.77;;
76210;SDS011;65003;49.518;11.280;2023-02-28T08:57:53;10.47;;;6.47;;
76210;SDS011;65003;49.518;11.280;2023-02-28T09:00:20;9.47;;;6.70;;
76210;SDS011;65003;49.518;11.280;2023-02-28T09:02:47;10.33;;;7.27;;
76210;SDS011;65003;49.518;11.280;2023-02-28T09:05:14;10.10;;;6.47;;
76210;SDS011;65003;49.518;11.280;2023-02-28T09:07:40;8.97;;;6.57;;
76210;SDS011;65003;49.518;11.280;2023-02-28T09:10:08;9.53;;;6.27;;
76210;SDS011;65003;49.518;11.280;2023-02-28T09:12:37;8.77;;;5.93;;
76210;SDS011;65003;49.518;11.280;2023-02-28T09:15:04;9.60;;;6.43;;
76210;SDS011;65003;49.518;11.280;2023-02-28T09:17:32;9.47;;;5.90;;
76210;SDS011;65003;49.518;11.280;2023-02-28T09:19:58;10.20;;;6.20;;
76210;SDS011;65003;49.518;11.280;2023-02-28T09:22:25;8.57;;;5.97;;
76210;SDS011;65003;49.518;11.280;2023-02-28T09:24:51;7.73;;;5.70;;
76210;SDS011;65003;49.518;11.280;2023-02-28T09:27:18;7.83;;;5.90;;
76210;SDS011;65003;49.518;11.280;2023-02-28T09:29:45;7.20;;;5.67;;
76210;SDS011;65003;49.518;11.280;2023-02-28T09:32:11;8.77;;;5.33;;
76210;SDS011;65003;49.518;11.280;2023-02-28T09:34:38;11.00;;;6.13;;
76210;SDS011;65003;49.518;11.280;2023-02-28T09:37:04;9.37;;;5.87;;
76210;SDS011;65003;49.518;11.280;2023-02-28T09:39:31;8.70;;;5.73;;
76210;SDS011;65003;49.518;11.280;2023-02-28T09:41:58;8.00;;;5.60;;
76210;SDS011;65003;49.518;11.280;2023-02-28T09:46:59;8.33;;;5.33;;
76210;SDS011;65003;49.518;11.280;2023-02-28T09:49:32;9.87;;;5.50;;
76210;SDS011;65003;49.518;11.280;2023-02-28T09:52:01;6.87;;;5.23;;
76210;SDS011;65003;49.518;11.280;2023-02-28T09:54:30;8.17;;;5.57;;
76210;SDS011;65003;49.518;11.280;2023-02-28T09:57:00;9.73;;;5.53;;
76210;SDS011;65003;49.518;11.280;2023-02-28T09:59:37;8.37;;;5.80;;
76210;SDS011;65003;49.518;11.280;2023-02-28T10:02:19;10.90;;;6.20;;
76210;SDS011;65003;49.518;11.280;2023-02-28T10:04:54;6.77;;;5.27;;
76210;SDS011;65003;49.518;11.280;2023-02-28T10:10:02;8.13;;;5.40;;
76210;SDS011;65003;49.518;11.280;2023-02-28T10:12:28;11.85;;;5.50;;
76210;SDS011;65003;49.518;11.280;2023-02-28T10:14:55;9.33;;;5.47;;
76210;SDS011;65003;49.518;11.280;2023-02-28T10:17:23;7.63;;;5.27;;
76210;SDS011;65003;49.518;11.280;2023-02-28T10:19:54;7.77;;;5.07;;
76210;SDS011;65003;49.518;11.280;2023-02-28T10:22:34;7.63;;;5.67;;
76210;SDS011;65003;49.518;11.280;2023-02-28T10:24:58;6.83;;;5.50;;
76210;SDS011;65003;49.518;11.280;2023-02-28T10:27:26;7.43;;;5.50;;
76210;SDS011;65003;49.518;11.280;2023-02-28T10:29:52;7.23;;;5.30;;
76210;SDS011;65003;49.518;11.280;2023-02-28T10:32:19;6.67;;;5.00;;
76210;SDS011;65003;49.518;11.280;2023-02-28T10:34:49;7.13;;;5.63;;
76210;SDS011;65003;49.518;11.280;2023-02-28T10:37:11;7.57;;;5.27;;
76210;SDS011;65003;49.518;11.280;2023-02-28T10:39:41;7.93;;;5.83;;
76210;SDS011;65003;49.518;11.280;2023-02-28T10:42:18;7.57;;;5.33;;
76210;SDS011;65003;49.518;11.280;2023-02-28T10:44:48;14.27;;;6.43;;
76210;SDS011;65003;49.518;11.280;2023-02-28T10:47:15;7.77;;;5.37;;
76210;SDS011;65003;49.518;11.280;2023-02-28T10:49:45;6.23;;;5.63;;
76210;SDS011;65003;49.518;11.280;2023-02-28T10:52:07;8.50;;;5.50;;
76210;SDS011;65003;49.518;11.280;2023-02-28T10:54:36;5.60;;;4.47;;
76210;SDS011;65003;49.518;11.280;2023-02-28T10:57:08;6.20;;;4.77;;
76210;SDS011;65003;49.518;11.280;2023-02-28T10:59:39;8.07;;;5.70;;
76210;SDS011;65003;49.518;11.280;2023-02-28T11:02:29;7.63;;;5.67;;
76210;SDS011;65003;49.518;11.280;2023-02-28T11:04:53;6.93;;;5.23;;
76210;SDS011;65003;49.518;11.280;2023-02-28T11:07:21;7.80;;;5.70;;
76210;SDS011;65003;49.518;11.280;2023-02-28T11:09:48;8.50;;;5.70;;
76210;SDS011;65003;49.518;11.280;2023-02-28T11:14:47;7.30;;;4.87;;
76210;SDS011;65003;49.518;11.280;2023-02-28T11:17:15;9.23;;;6.03;;
76210;SDS011;65003;49.518;11.280;2023-02-28T11:19:44;10.17;;;5.60;;
76210;SDS011;65003;49.518;11.280;2023-02-28T11:22:07;7.87;;;5.77;;
76210;SDS011;65003;49.518;11.280;2023-02-28T11:24:35;8.87;;;6.53;;
76210;SDS011;65003;49.518;11.280;2023-02-28T11:27:01;7.27;;;5.47;;
76210;SDS011;65003;49.518;11.280;2023-02-28T11:29:29;7.13;;;5.30;;
76210;SDS011;65003;49.518;11.280;2023-02-28T11:32:19;6.87;;;4.87;;
76210;SDS011;65003;49.518;11.280;2023-02-28T11:34:43;7.37;;;5.10;;
76210;SDS011;65003;49.518;11.280;2023-02-28T11:37:12;7.90;;;5.53;;
76210;SDS011;65003;49.518;11.280;2023-02-28T11:39:37;6.53;;;5.40;;
76210;SDS011;65003;49.518;11.280;2023-02-28T11:42:11;7.87;;;5.53;;
76210;SDS011;65003;49.518;11.280;2023-02-28T11:44:48;8.43;;;5.40;;
76210;SDS011;65003;49.518;11.280;2023-02-28T11:47:35;9.27;;;5.27;;
76210;SDS011;65003;49.518;11.280;2023-02-28T11:50:13;7.30;;;5.57;;
76210;SDS011;65003;49.518;11.280;2023-02-28T11:52:45;9.80;;;5.27;;
76210;SDS011;65003;49.518;11.280;2023-02-28T11:55:17;7.90;;;6.10;;
76210;SDS011;65003;49.518;11.280;2023-02-28T12:00:34;7.57;;;5.27;;
76210;SDS011;65003;49.518;11.280;2023-02-28T12:03:15;7.33;;;5.37;;
76210;SDS011;65003;49.518;11.280;2023-02-28T12:05:53;7.10;;;5.13;;
76210;SDS011;65003;49.518;11.280;2023-02-28T12:08:38;7.13;;;5.60;;
76210;SDS011;65003;49.518;11.280;2023-02-28T12:11:09;9.97;;;5.73;;
76210;SDS011;65003;49.518;11.280;2023-02-28T12:13:43;8.57;;;6.07;;
76210;SDS011;65003;49.518;11.280;2023-02-28T12:16:14;8.33;;;5.70;;
76210;SDS011;65003;49.518;11.280;2023-02-28T12:18:47;7.17;;;5.50;;
76210;SDS011;65003;49.518;11.280;2023-02-28T12:21:24;10.03;;;6.30;;
76210;SDS011;65003;49.518;11.280;2023-02-28T12:24:07;8.40;;;5.60;;
76210;SDS011;65003;49.518;11.280;2023-02-28T12:26:38;10.10;;;6.43;;
76210;SDS011;65003;49.518;11.280;2023-02-28T12:29:10;9.03;;;6.00;;
76210;SDS011;65003;49.518;11.280;2023-02-28T12:31:38;7.87;;;6.20;;
76210;SDS011;65003;49.518;11.280;2023-02-28T12:34:04;9.83;;;6.13;;
76210;SDS011;65003;49.518;11.280;2023-02-28T12:36:29;7.93;;;6.03;;
76210;SDS011;65003;49.518;11.280;2023-02-28T12:39:03;9.73;;;6.57;;
76210;SDS011;65003;49.518;11.280;2023-02-28T12:41:37;11.40;;;6.23;;
76210;SDS011;65003;49.518;11.280;2023-02-28T12:44:04;8.57;;;6.03;;
76210;SDS011;65003;49.518;11.280;2023-02-28T12:46:35;8.10;;;6.07;;
76210;SDS011;65003;49.518;11.280;2023-02-28T12:49:05;10.83;;;6.60;;
76210;SDS011;65003;49.518;11.280;2023-02-28T12:51:31;8.13;;;6.20;;
76210;SDS011;65003;49.518;11.280;2023-02-28T12:54:07;9.70;;;6.13;;
76210;SDS011;65003;49.518;11.280;2023-02-28T12:56:33;8.13;;;5.90;;
76210;SDS011;65003;49.518;11.280;2023-02-28T12:59:01;10.53;;;5.90;;
76210;SDS011;65003;49.518;11.280;2023-02-28T13:01:31;9.03;;;6.33;;
76210;SDS011;65003;49.518;11.280;2023-02-28T13:04:05;9.63;;;6.77;;
76210;SDS011;65003;49.518;11.280;2023-02-28T13:06:52;8.53;;;6.30;;
76210;SDS011;65003;49.518;11.280;2023-02-28T13:09:30;8.80;;;6.30;;
76210;SDS011;65003;49.518;11.280;2023-02-28T13:11:57;9.07;;;6.43;;
76210;SDS011;65003;49.518;11.280;2023-02-28T13:14:26;8.90;;;5.60;;
76210;SDS011;65003;49.518;11.280;2023-02-28T13:17:09;8.37;;;6.37;;
76210;SDS011;65003;49.518;11.280;2023-02-28T13:19:44;9.10;;;6.47;;
76210;SDS011;65003;49.518;11.280;2023-02-28T13:24:45;8.13;;;6.10;;
76210;SDS011;65003;49.518;11.280;2023-02-28T13:29:58;8.53;;;6.13;;
76210;SDS011;65003;49.518;11.280;2023-02-28T13:35:14;6.90;;;6.20;;
76210;SDS011;65003;49.518;11.280;2023-02-28T13:37:43;9.10;;;6.77;;
76210;SDS011;65003;49.518;11.280;2023-02-28T13:42:51;8.37;;;5.97;;
76210;SDS011;65003;49.518;11.280;2023-02-28T13:45:20;9.73;;;6.73;;
76210;SDS011;65003;49.518;11.280;2023-02-28T13:50:21;8.07;;;6.27;;
76210;SDS011;65003;49.518;11.280;2023-02-28T13:52:51;8.03;;;6.37;;
76210;SDS011;65003;49.518;11.280;2023-02-28T13:55:19;11.23;;;7.03;;
76210;SDS011;65003;49.518;11.280;2023-02-28T13:58:57;8.77;;;6.07;;
76210;SDS011;65003;49.518;11.280;2023-02-28T14:00:45;11.43;;;6.87;;
76210;SDS011;65003;49.518;11.280;2023-02-28T14:03:24;8.77;;;6.77;;
76210;SDS011;65003;49.518;11.280;2023-02-28T14:08:29;9.60;;;6.50;;
76210;SDS011;65003;49.518;11.280;2023-02-28T14:11:05;11.03;;;7.00;;
76210;SDS011;65003;49.518;11.280;2023-02-28T14:16:04;12.40;;;6.80;;
76210;SDS011;65003;49.518;11.280;2023-02-28T14:18:31;8.50;;;6.77;;
76210;SDS011;65003;49.518;11.280;2023-02-28T14:21:01;8.90;;;6.70;;
76210;SDS011;65003;49.518;11.280;2023-02-28T14:23:44;7.43;;;6.27;;
76210;SDS011;65003;49.518;11.280;2023-02-28T14:26:18;8.63;;;6.67;;
76210;SDS011;65003;49.518;11.280;2023-02-28T14:31:34;9.13;;;6.83;;
76210;SDS011;65003;49.518;11.280;2023-02-28T14:34:17;10.20;;;6.83;;
76210;SDS011;65003;49.518;11.280;2023-02-28T14:36:48;9.80;;;6.37;;
76210;SDS011;65003;49.518;11.280;2023-02-28T14:39:15;10.03;;;7.20;;
76210;SDS011;65003;49.518;11.280;2023-02-28T14:41:41;11.30;;;7.17;;
76210;SDS011;65003;49.518;11.280;2023-02-28T14:46:42;10.10;;;6.70;;
76210;SDS011;65003;49.518;11.280;2023-02-28T14:49:17;13.60;;;7.30;;
76210;SDS011;65003;49.518;11.280;2023-02-28T14:51:39;8.70;;;6.53;;
76210;SDS011;65003;49.518;11.280;2023-02-28T14:54:05;10.10;;;7.27;;
76210;SDS011;65003;49.518;11.280;2023-02-28T14:56:34;10.27;;;6.57;;
76210;SDS011;65003;49.518;11.280;2023-02-28T14:59:00;11.80;;;6.47;;
76210;SDS011;65003;49.518;11.280;2023-02-28T15:01:27;9.97;;;7.23;;
76210;SDS011;65003;49.518;11.280;2023-02-28T15:03:57;9.80;;;6.97;;
76210;SDS011;65003;49.518;11.280;2023-02-28T15:06:23;11.30;;;7.53;;
76210;SDS011;65003;49.518;11.280;2023-02-28T15:11:28;11.27;;;7.20;;
76210;SDS011;65003;49.518;11.280;2023-02-28T15:13:55;13.27;;;7.50;;
76210;SDS011;65003;49.518;11.280;2023-02-28T15:16:23;14.47;;;8.27;;
76210;SDS011;65003;49.518;11.280;2023-02-28T15:18:49;11.07;;;7.10;;
76210;SDS011;65003;49.518;11.280;2023-02-28T15:21:20;11.20;;;6.87;;
76210;SDS011;65003;49.518;11.280;2023-02-28T15:23:51;7.10;;;6.30;;
76210;SDS011;65003;49.518;11.280;2023-02-28T15:26:20;9.57;;;7.40;;